Time;durP1;ratioP1;P1;durP2;ratioP2;P2;SDS_P1;SDS_P2;PMS_P1;PMS_P2;Temp;Humidity;BMP_temperature;BMP_pressure;BME280_temperature;BME280_humidity;BME280_pressure;Samples;Min_cycle;Max_cycle;Signal;HPM_P1;HPM_P2
2022/08/11 00:07:10;;;;;;;0.20;0.10;;;25.50;99.90;;;;;;26168124;22;20190;-70
2022/08/11 00:17:15;;;;;;;0.20;0.00;;;25.20;99.90;;;;;;26168311;22;20202;-70
2022/08/11 00:27:21;;;;;;;0.20;0.00;;;25.10;99.90;;;;;;26169206;22;20270;-69
2022/08/11 00:37:25;;;;;;;0.20;0.10;;;25.00;99.90;;;;;;26142198;22;20194;-70
2022/08/11 00:47:42;;;;;;;0.20;0.00;;;25.00;99.90;;;;;;26168867;22;20167;-68
2022/08/11 00:58:31;;;;;;;0.20;0.10;;;25.00;99.90;;;;;;26167588;22;20176;-69
2022/08/11 01:09:18;;;;;;;0.20;0.10;;;24.90;99.90;;;;;;26166139;22;20202;-69
2022/08/11 01:20:02;;;;;;;0.20;0.00;;;24.90;99.90;;;;;;26126117;22;20195;-69
2022/08/11 01:31:01;;;;;;;0.20;0.00;;;24.80;99.90;;;;;;26095097;22;20202;-69
2022/08/11 01:52:18;;;;;;;0.20;0.00;;;24.80;99.90;;;;;;26149531;22;20170;-70
2022/08/11 02:02:48;;;;;;;0.20;0.10;;;24.90;99.90;;;;;;26147069;22;20183;-71
2022/08/11 02:12:58;;;;;;;0.20;0.00;;;24.90;99.90;;;;;;26174253;22;20195;-71
2022/08/11 02:34:20;;;;;;;0.20;0.00;;;25.20;99.90;;;;;;26091863;22;20191;-68
2022/08/11 02:44:34;;;;;;;0.20;0.00;;;25.40;99.90;;;;;;26173098;22;20155;-69
2022/08/11 02:54:44;;;;;;;0.20;0.00;;;25.40;99.90;;;;;;26173215;22;20176;-69
2022/08/11 03:05:00;;;;;;;0.20;0.10;;;25.40;99.90;;;;;;26173773;22;20193;-68
2022/08/11 03:25:45;;;;;;;0.20;0.00;;;25.30;99.90;;;;;;26174764;22;20164;-71
2022/08/11 03:36:03;;;;;;;0.20;0.00;;;24.80;99.90;;;;;;26172635;22;20190;-69
2022/08/11 03:46:13;;;;;;;0.20;0.00;;;24.60;99.90;;;;;;26170909;22;20162;-71
2022/08/11 03:56:55;;;;;;;0.20;0.00;;;24.50;99.90;;;;;;26170727;22;20187;-69
2022/08/11 04:07:26;;;;;;;0.20;0.00;;;24.30;99.90;;;;;;26169872;22;20186;-69
2022/08/11 04:17:52;;;;;;;0.20;0.00;;;24.30;99.90;;;;;;26172055;22;20236;-68
2022/08/11 04:28:38;;;;;;;0.20;0.00;;;24.10;99.90;;;;;;26170220;22;20164;-70
2022/08/11 04:39:13;;;;;;;0.20;0.00;;;24.10;99.90;;;;;;26148240;22;20191;-69
2022/08/11 05:10:45;;;;;;;0.20;0.00;;;24.00;99.90;;;;;;26139985;22;20202;-69
2022/08/11 06:02:41;;;;;;;0.20;0.00;;;24.50;99.90;;;;;;26137869;22;20217;-69
2022/08/11 06:12:47;;;;;;;0.20;0.00;;;24.70;99.90;;;;;;26172130;22;20195;-69
2022/08/11 06:22:59;;;;;;;0.20;0.00;;;25.00;99.90;;;;;;26174364;22;20180;-69
2022/08/11 06:33:06;;;;;;;0.20;0.00;;;25.40;99.90;;;;;;26145056;22;20175;-68
2022/08/11 06:43:21;;;;;;;0.20;0.00;;;25.90;99.90;;;;;;26147147;22;20183;-68
2022/08/11 06:53:25;;;;;;;0.20;0.00;;;26.50;99.90;;;;;;26172234;22;20159;-68
2022/08/11 07:03:36;;;;;;;0.20;0.05;;;27.10;99.90;;;;;;26170673;22;20188;-69
2022/08/11 07:34:59;;;;;;;0.20;0.00;;;28.40;99.90;;;;;;26166172;22;20187;-67
2022/08/11 07:55:29;;;;;;;0.20;0.00;;;28.40;99.90;;;;;;26169086;22;20191;-68
2022/08/11 08:27:00;;;;;;;0.20;0.00;;;29.10;99.90;;;;;;26168304;22;20159;-68
2022/08/11 08:37:05;;;;;;;0.20;0.00;;;29.50;99.90;;;;;;26140301;22;20191;-67
2022/08/11 08:47:35;;;;;;;0.20;0.00;;;29.30;99.90;;;;;;26140098;22;20170;-68
2022/08/11 08:57:48;;;;;;;0.20;0.10;;;29.50;99.90;;;;;;26169139;22;20183;-68
2022/08/11 09:07:56;;;;;;;0.20;0.00;;;29.40;99.90;;;;;;26166884;22;20249;-66
2022/08/11 09:18:05;;;;;;;0.20;0.00;;;29.60;99.90;;;;;;26165064;22;20203;-68
2022/08/11 09:28:13;;;;;;;0.20;0.00;;;29.90;99.90;;;;;;26165737;22;20168;-69
2022/08/11 09:48:44;;;;;;;0.20;0.00;;;29.90;99.90;;;;;;26172238;22;20174;-68
2022/08/11 09:58:49;;;;;;;0.20;0.00;;;30.00;99.90;;;;;;26172702;22;20194;-68
2022/08/11 10:08:55;;;;;;;0.20;0.00;;;30.00;99.90;;;;;;26172537;22;20202;-68
2022/08/11 10:19:01;;;;;;;0.20;0.00;;;30.40;99.90;;;;;;26143879;22;20195;-69
2022/08/11 10:33:58;;;;;;;0.20;0.00;;;30.40;99.90;;;;;;26173316;22;20148;-71
2022/08/11 10:39:40;;;;;;;0.20;0.00;;;30.50;99.90;;;;;;26143007;22;20195;-68
2022/08/11 10:51:11;;;;;;;0.20;0.00;;;30.90;99.90;;;;;;26144325;22;20258;-70
2022/08/11 11:00:14;;;;;;;0.20;0.00;;;31.40;99.90;;;;;;26142230;22;20199;-69
2022/08/11 11:10:20;;;;;;;0.20;0.00;;;32.00;99.90;;;;;;26172676;22;20199;-69
2022/08/11 11:20:26;;;;;;;0.20;0.00;;;32.20;99.90;;;;;;26142114;22;20187;-69
2022/08/11 11:30:55;;;;;;;0.20;0.00;;;33.10;99.90;;;;;;26142088;22;20177;-69
2022/08/11 11:51:24;;;;;;;0.20;0.00;;;33.90;99.90;;;;;;26167842;22;20156;-69
2022/08/11 12:01:28;;;;;;;0.20;0.00;;;34.40;99.90;;;;;;26170159;22;20533;-70
2022/08/11 12:32:24;;;;;;;0.20;0.00;;;35.30;99.90;;;;;;26169116;22;20219;-69
2022/08/11 12:52:59;;;;;;;0.20;0.05;;;35.80;99.90;;;;;;26167181;22;20170;-70
2022/08/11 13:13:28;;;;;;;0.20;0.00;;;36.50;99.90;;;;;;26165885;22;20254;-70
2022/08/11 13:23:55;;;;;;;0.20;0.00;;;37.10;99.90;;;;;;26172791;22;20229;-68
2022/08/11 13:34:08;;;;;;;0.20;0.00;;;36.70;99.90;;;;;;26176066;22;20159;-70
2022/08/11 13:44:15;;;;;;;0.20;0.00;;;36.80;99.90;;;;;;26174909;22;20180;-70
2022/08/11 13:54:31;;;;;;;0.20;0.00;;;36.90;99.90;;;;;;26145336;22;20174;-70
2022/08/11 14:04:39;;;;;;;0.20;0.00;;;36.60;99.90;;;;;;26174539;22;20195;-70
2022/08/11 14:14:49;;;;;;;0.52;0.43;;;36.40;99.90;;;;;;26172430;22;20195;-70
2022/08/11 14:24:54;;;;;;;0.20;0.00;;;37.20;99.90;;;;;;26170346;22;20184;-70
2022/08/11 14:34:59;;;;;;;0.20;0.00;;;37.00;99.90;;;;;;26172484;22;20171;-70
2022/08/11 15:06:12;;;;;;;0.20;0.00;;;37.70;99.90;;;;;;26171655;22;20188;-70
2022/08/11 15:37:26;;;;;;;0.20;0.00;;;37.70;99.90;;;;;;26168896;22;20183;-70
2022/08/11 15:47:38;;;;;;;0.20;0.00;;;35.50;99.90;;;;;;26168796;22;20160;-70
2022/08/11 16:08:12;;;;;;;0.20;0.00;;;33.40;99.90;;;;;;26168047;22;20187;-70
2022/08/11 16:18:22;;;;;;;0.20;0.00;;;33.20;99.90;;;;;;26141318;22;20190;-70
2022/08/11 16:28:27;;;;;;;0.20;0.00;;;33.10;99.90;;;;;;26137563;22;20201;-70
2022/08/11 16:38:36;;;;;;;0.20;0.00;;;32.90;99.90;;;;;;26138852;22;20191;-69
2022/08/11 16:48:42;;;;;;;0.20;0.00;;;32.60;99.90;;;;;;26167394;22;20166;-69
2022/08/11 17:19:50;;;;;;;0.20;0.00;;;32.20;99.90;;;;;;26165911;22;20191;-69
2022/08/11 17:30:14;;;;;;;0.20;0.00;;;32.50;99.90;;;;;;26135175;22;20166;-69
2022/08/11 17:40:23;;;;;;;0.20;0.00;;;33.60;99.90;;;;;;26165908;22;20183;-68
2022/08/11 17:50:28;;;;;;;0.20;0.00;;;33.10;99.90;;;;;;26165152;22;20168;-68
2022/08/11 18:00:34;;;;;;;0.20;0.00;;;33.30;99.90;;;;;;26165718;22;20198;-68
